sensor_id;sensor_type;location;lat;lon;timestamp;temperature;humidity
14735;DHT22;7458;49.002;8.472;2023-05-29T00:06:16;17.10;87.70
14735;DHT22;7458;49.002;8.472;2023-05-29T00:08:43;17.00;87.50
14735;DHT22;7458;49.002;8.472;2023-05-29T00:11:08;17.20;87.90
14735;DHT22;7458;49.002;8.472;2023-05-29T00:16:01;17.00;87.30
14735;DHT22;7458;49.002;8.472;2023-05-29T00:18:29;17.10;87.00
14735;DHT22;7458;49.002;8.472;2023-05-29T00:20:54;17.10;86.50
14735;DHT22;7458;49.002;8.472;2023-05-29T00:23:21;17.40;77.50
14735;DHT22;7458;49.002;8.472;2023-05-29T00:28:13;17.20;85.70
14735;DHT22;7458;49.002;8.472;2023-05-29T00:30:39;17.50;72.40
14735;DHT22;7458;49.002;8.472;2023-05-29T00:33:05;17.30;85.50
14735;DHT22;7458;49.002;8.472;2023-05-29T00:35:31;17.30;86.00
14735;DHT22;7458;49.002;8.472;2023-05-29T00:37:58;17.30;72.50
14735;DHT22;7458;49.002;8.472;2023-05-29T00:40:24;17.20;85.70
14735;DHT22;7458;49.002;8.472;2023-05-29T00:45:17;17.10;85.90
14735;DHT22;7458;49.002;8.472;2023-05-29T00:47:43;17.20;86.00
14735;DHT22;7458;49.002;8.472;2023-05-29T00:50:11;17.20;86.00
14735;DHT22;7458;49.002;8.472;2023-05-29T00:52:40;17.00;80.00
14735;DHT22;7458;49.002;8.472;2023-05-29T00:55:09;16.90;86.90
14735;DHT22;7458;49.002;8.472;2023-05-29T00:57:35;17.00;74.00
14735;DHT22;7458;49.002;8.472;2023-05-29T01:00:05;17.00;74.30
14735;DHT22;7458;49.002;8.472;2023-05-29T01:02:38;16.80;85.20
14735;DHT22;7458;49.002;8.472;2023-05-29T01:05:06;16.90;88.40
14735;DHT22;7458;49.002;8.472;2023-05-29T01:12:47;16.70;88.50
14735;DHT22;7458;49.002;8.472;2023-05-29T01:15:49;16.70;88.50
14735;DHT22;7458;49.002;8.472;2023-05-29T01:24:25;16.30;84.00
14735;DHT22;7458;49.002;8.472;2023-05-29T01:27:05;16.40;89.40
14735;DHT22;7458;49.002;8.472;2023-05-29T01:29:38;16.20;90.30
14735;DHT22;7458;49.002;8.472;2023-05-29T01:32:09;16.50;90.40
14735;DHT22;7458;49.002;8.472;2023-05-29T01:39:29;16.20;90.30
14735;DHT22;7458;49.002;8.472;2023-05-29T01:41:57;16.10;90.30
14735;DHT22;7458;49.002;8.472;2023-05-29T01:44:25;16.10;77.40
14735;DHT22;7458;49.002;8.472;2023-05-29T01:46:52;16.10;90.30
14735;DHT22;7458;49.002;8.472;2023-05-29T01:49:18;16.20;77.40
14735;DHT22;7458;49.002;8.472;2023-05-29T01:51:45;16.00;90.40
14735;DHT22;7458;49.002;8.472;2023-05-29T01:54:11;16.00;90.60
14735;DHT22;7458;49.002;8.472;2023-05-29T01:56:38;16.00;90.50
14735;DHT22;7458;49.002;8.472;2023-05-29T01:59:05;16.00;90.70
14735;DHT22;7458;49.002;8.472;2023-05-29T02:06:24;15.80;91.20
14735;DHT22;7458;49.002;8.472;2023-05-29T02:11:16;15.50;91.50
14735;DHT22;7458;49.002;8.472;2023-05-29T02:13:42;15.70;91.60
14735;DHT22;7458;49.002;8.472;2023-05-29T02:16:08;15.80;91.80
14735;DHT22;7458;49.002;8.472;2023-05-29T02:18:33;15.70;91.80
14735;DHT22;7458;49.002;8.472;2023-05-29T02:21:02;15.80;92.10
14735;DHT22;7458;49.002;8.472;2023-05-29T02:23:28;15.60;92.20
14735;DHT22;7458;49.002;8.472;2023-05-29T02:25:54;15.50;92.30
14735;DHT22;7458;49.002;8.472;2023-05-29T02:28:20;15.90;92.70
14735;DHT22;7458;49.002;8.472;2023-05-29T02:30:46;15.50;92.70
14735;DHT22;7458;49.002;8.472;2023-05-29T02:40:30;15.30;93.40
14735;DHT22;7458;49.002;8.472;2023-05-29T02:42:56;15.40;93.60
14735;DHT22;7458;49.002;8.472;2023-05-29T02:45:21;15.20;93.70
14735;DHT22;7458;49.002;8.472;2023-05-29T02:47:47;15.20;94.00
14735;DHT22;7458;49.002;8.472;2023-05-29T02:50:13;15.00;94.30
14735;DHT22;7458;49.002;8.472;2023-05-29T02:52:40;15.00;94.40
14735;DHT22;7458;49.002;8.472;2023-05-29T02:55:06;15.10;94.70
14735;DHT22;7458;49.002;8.472;2023-05-29T02:57:32;15.10;94.90
14735;DHT22;7458;49.002;8.472;2023-05-29T02:59:58;15.10;94.90
14735;DHT22;7458;49.002;8.472;2023-05-29T03:04:51;15.10;95.00
14735;DHT22;7458;49.002;8.472;2023-05-29T03:07:17;15.00;95.20
14735;DHT22;7458;49.002;8.472;2023-05-29T03:09:43;14.90;95.70
14735;DHT22;7458;49.002;8.472;2023-05-29T03:14:36;18.20;91.20
14735;DHT22;7458;49.002;8.472;2023-05-29T03:17:06;14.80;96.50
14735;DHT22;7458;49.002;8.472;2023-05-29T03:22:02;14.80;95.00
14735;DHT22;7458;49.002;8.472;2023-05-29T03:29:21;14.70;97.00
14735;DHT22;7458;49.002;8.472;2023-05-29T03:31:47;14.60;97.10
14735;DHT22;7458;49.002;8.472;2023-05-29T03:34:13;14.80;97.30
14735;DHT22;7458;49.002;8.472;2023-05-29T03:41:31;14.70;96.00
14735;DHT22;7458;49.002;8.472;2023-05-29T03:46:23;14.80;97.50
14735;DHT22;7458;49.002;8.472;2023-05-29T03:53:41;14.50;98.40
14735;DHT22;7458;49.002;8.472;2023-05-29T03:56:07;14.50;98.30
14735;DHT22;7458;49.002;8.472;2023-05-29T04:00:59;14.60;98.50
14735;DHT22;7458;49.002;8.472;2023-05-29T04:03:25;14.50;98.70
14735;DHT22;7458;49.002;8.472;2023-05-29T04:10:43;14.30;99.10
14735;DHT22;7458;49.002;8.472;2023-05-29T04:25:21;14.60;99.90
14735;DHT22;7458;49.002;8.472;2023-05-29T04:30:15;14.50;99.80
14735;DHT22;7458;49.002;8.472;2023-05-29T04:37:35;14.60;99.50
14735;DHT22;7458;49.002;8.472;2023-05-29T04:40:06;14.70;99.40
14735;DHT22;7458;49.002;8.472;2023-05-29T04:42:37;14.60;99.20
14735;DHT22;7458;49.002;8.472;2023-05-29T04:45:06;14.80;99.60
14735;DHT22;7458;49.002;8.472;2023-05-29T04:47:32;14.70;99.50
14735;DHT22;7458;49.002;8.472;2023-05-29T04:49:59;14.80;99.60
14735;DHT22;7458;49.002;8.472;2023-05-29T04:52:26;14.70;99.60
14735;DHT22;7458;49.002;8.472;2023-05-29T04:54:52;14.90;99.60
14735;DHT22;7458;49.002;8.472;2023-05-29T04:57:22;14.90;99.60
14735;DHT22;7458;49.002;8.472;2023-05-29T04:59:48;15.30;98.90
14735;DHT22;7458;49.002;8.472;2023-05-29T05:02:14;14.90;99.50
14735;DHT22;7458;49.002;8.472;2023-05-29T05:04:40;15.10;99.70
14735;DHT22;7458;49.002;8.472;2023-05-29T05:07:06;15.10;99.60
14735;DHT22;7458;49.002;8.472;2023-05-29T05:09:31;15.20;99.60
14735;DHT22;7458;49.002;8.472;2023-05-29T05:11:57;15.20;99.40
14735;DHT22;7458;49.002;8.472;2023-05-29T05:16:49;15.50;99.30
14735;DHT22;7458;49.002;8.472;2023-05-29T05:19:16;15.30;93.90
14735;DHT22;7458;49.002;8.472;2023-05-29T05:21:42;15.40;99.10
14735;DHT22;7458;49.002;8.472;2023-05-29T05:24:07;15.70;98.50
14735;DHT22;7458;49.002;8.472;2023-05-29T05:26:33;15.50;98.30
14735;DHT22;7458;49.002;8.472;2023-05-29T05:28:59;15.40;97.90
14735;DHT22;7458;49.002;8.472;2023-05-29T05:33:51;15.90;97.90
14735;DHT22;7458;49.002;8.472;2023-05-29T05:38:43;15.80;97.50
14735;DHT22;7458;49.002;8.472;2023-05-29T05:41:09;15.90;97.20
14735;DHT22;7458;49.002;8.472;2023-05-29T05:43:35;15.80;96.90
14735;DHT22;7458;49.002;8.472;2023-05-29T05:46:01;16.00;97.40
14735;DHT22;7458;49.002;8.472;2023-05-29T05:53:19;16.30;96.90
14735;DHT22;7458;49.002;8.472;2023-05-29T05:55:46;16.40;96.80
14735;DHT22;7458;49.002;8.472;2023-05-29T05:58:12;16.60;96.50
14735;DHT22;7458;49.002;8.472;2023-05-29T06:00:39;16.60;91.40
14735;DHT22;7458;49.002;8.472;2023-05-29T06:03:05;16.70;91.30
14735;DHT22;7458;49.002;8.472;2023-05-29T06:05:31;18.00;91.30
14735;DHT22;7458;49.002;8.472;2023-05-29T06:07:56;20.30;82.80
14735;DHT22;7458;49.002;8.472;2023-05-29T06:10:22;22.60;73.20
14735;DHT22;7458;49.002;8.472;2023-05-29T06:12:48;24.30;65.30
14735;DHT22;7458;49.002;8.472;2023-05-29T06:15:14;25.30;65.50
14735;DHT22;7458;49.002;8.472;2023-05-29T06:17:40;25.50;58.00
14735;DHT22;7458;49.002;8.472;2023-05-29T06:20:06;26.30;55.90
14735;DHT22;7458;49.002;8.472;2023-05-29T06:22:36;26.80;54.40
14735;DHT22;7458;49.002;8.472;2023-05-29T06:25:02;27.80;57.90
14735;DHT22;7458;49.002;8.472;2023-05-29T06:27:29;28.00;51.30
14735;DHT22;7458;49.002;8.472;2023-05-29T06:29:55;28.40;50.50
14735;DHT22;7458;49.002;8.472;2023-05-29T06:32:21;28.60;48.80
14735;DHT22;7458;49.002;8.472;2023-05-29T06:34:47;29.20;47.90
14735;DHT22;7458;49.002;8.472;2023-05-29T06:37:13;29.50;46.90
14735;DHT22;7458;49.002;8.472;2023-05-29T06:39:39;30.20;45.20
14735;DHT22;7458;49.002;8.472;2023-05-29T06:42:07;30.60;44.90
14735;DHT22;7458;49.002;8.472;2023-05-29T06:44:33;31.40;43.20
14735;DHT22;7458;49.002;8.472;2023-05-29T06:46:59;31.20;42.30
14735;DHT22;7458;49.002;8.472;2023-05-29T06:49:25;31.50;41.10
14735;DHT22;7458;49.002;8.472;2023-05-29T06:51:51;31.70;40.50
14735;DHT22;7458;49.002;8.472;2023-05-29T06:54:17;32.00;40.20
14735;DHT22;7458;49.002;8.472;2023-05-29T06:56:45;32.00;38.70
14735;DHT22;7458;49.002;8.472;2023-05-29T06:59:11;32.00;39.50
14735;DHT22;7458;49.002;8.472;2023-05-29T07:01:40;32.30;38.40
14735;DHT22;7458;49.002;8.472;2023-05-29T07:04:05;32.70;38.30
14735;DHT22;7458;49.002;8.472;2023-05-29T07:06:32;32.70;36.10
14735;DHT22;7458;49.002;8.472;2023-05-29T07:08:59;32.80;36.40
14735;DHT22;7458;49.002;8.472;2023-05-29T07:11:25;33.40;35.30
14735;DHT22;7458;49.002;8.472;2023-05-29T07:13:55;33.70;35.80
14735;DHT22;7458;49.002;8.472;2023-05-29T07:16:21;33.30;33.70
14735;DHT22;7458;49.002;8.472;2023-05-29T07:18:47;33.10;34.80
14735;DHT22;7458;49.002;8.472;2023-05-29T07:21:13;32.90;35.40
14735;DHT22;7458;49.002;8.472;2023-05-29T07:23:42;31.90;36.30
14735;DHT22;7458;49.002;8.472;2023-05-29T07:26:07;31.40;36.90
14735;DHT22;7458;49.002;8.472;2023-05-29T07:28:33;31.50;36.40
14735;DHT22;7458;49.002;8.472;2023-05-29T07:30:59;32.20;36.20
14735;DHT22;7458;49.002;8.472;2023-05-29T07:33:25;32.70;36.20
14735;DHT22;7458;49.002;8.472;2023-05-29T07:35:50;32.10;35.30
14735;DHT22;7458;49.002;8.472;2023-05-29T07:38:16;32.20;36.40
14735;DHT22;7458;49.002;8.472;2023-05-29T07:40:42;31.90;36.10
14735;DHT22;7458;49.002;8.472;2023-05-29T07:43:08;32.10;36.50
14735;DHT22;7458;49.002;8.472;2023-05-29T07:45:34;32.10;37.00
14735;DHT22;7458;49.002;8.472;2023-05-29T07:47:59;31.50;37.90
14735;DHT22;7458;49.002;8.472;2023-05-29T07:50:25;30.80;39.20
14735;DHT22;7458;49.002;8.472;2023-05-29T07:52:51;30.00;39.70
14735;DHT22;7458;49.002;8.472;2023-05-29T07:55:18;29.50;41.00
14735;DHT22;7458;49.002;8.472;2023-05-29T07:57:43;28.90;42.20
14735;DHT22;7458;49.002;8.472;2023-05-29T08:00:09;28.20;42.40
14735;DHT22;7458;49.002;8.472;2023-05-29T08:02:38;27.80;43.30
14735;DHT22;7458;49.002;8.472;2023-05-29T08:05:04;27.90;50.80
14735;DHT22;7458;49.002;8.472;2023-05-29T08:07:30;27.70;44.80
14735;DHT22;7458;49.002;8.472;2023-05-29T08:09:57;28.20;44.60
14735;DHT22;7458;49.002;8.472;2023-05-29T08:12:23;28.10;44.10
14735;DHT22;7458;49.002;8.472;2023-05-29T08:14:49;28.40;44.20
14735;DHT22;7458;49.002;8.472;2023-05-29T08:17:14;28.40;43.60
14735;DHT22;7458;49.002;8.472;2023-05-29T08:19:40;28.80;43.40
14735;DHT22;7458;49.002;8.472;2023-05-29T08:22:06;29.50;42.00
14735;DHT22;7458;49.002;8.472;2023-05-29T08:24:32;30.30;42.10
14735;DHT22;7458;49.002;8.472;2023-05-29T08:26:58;30.50;41.40
14735;DHT22;7458;49.002;8.472;2023-05-29T08:29:23;30.80;40.60
14735;DHT22;7458;49.002;8.472;2023-05-29T08:31:49;30.80;40.30
14735;DHT22;7458;49.002;8.472;2023-05-29T08:34:15;30.60;40.40
14735;DHT22;7458;49.002;8.472;2023-05-29T08:36:41;30.70;41.00
14735;DHT22;7458;49.002;8.472;2023-05-29T08:39:07;30.40;40.70
14735;DHT22;7458;49.002;8.472;2023-05-29T08:41:59;30.50;41.50
14735;DHT22;7458;49.002;8.472;2023-05-29T08:44:39;30.00;40.80
14735;DHT22;7458;49.002;8.472;2023-05-29T08:47:07;30.20;41.30
14735;DHT22;7458;49.002;8.472;2023-05-29T08:49:42;30.00;41.20
14735;DHT22;7458;49.002;8.472;2023-05-29T08:52:24;29.80;41.40
14735;DHT22;7458;49.002;8.472;2023-05-29T08:54:52;29.90;42.70
14735;DHT22;7458;49.002;8.472;2023-05-29T08:57:20;29.80;41.80
14735;DHT22;7458;49.002;8.472;2023-05-29T08:59:47;30.00;42.60
14735;DHT22;7458;49.002;8.472;2023-05-29T09:02:17;30.00;42.60
14735;DHT22;7458;49.002;8.472;2023-05-29T09:04:44;30.00;42.10
14735;DHT22;7458;49.002;8.472;2023-05-29T09:07:18;29.30;42.10
14735;DHT22;7458;49.002;8.472;2023-05-29T09:09:48;29.50;43.00
14735;DHT22;7458;49.002;8.472;2023-05-29T09:12:15;29.50;42.90
14735;DHT22;7458;49.002;8.472;2023-05-29T09:14:42;29.40;42.50
14735;DHT22;7458;49.002;8.472;2023-05-29T09:17:10;29.30;41.90
14735;DHT22;7458;49.002;8.472;2023-05-29T09:19:38;29.10;42.60
14735;DHT22;7458;49.002;8.472;2023-05-29T09:22:13;28.90;43.00
14735;DHT22;7458;49.002;8.472;2023-05-29T09:24:46;28.50;43.20
14735;DHT22;7458;49.002;8.472;2023-05-29T09:27:14;28.50;43.50
14735;DHT22;7458;49.002;8.472;2023-05-29T09:29:41;28.50;44.30
14735;DHT22;7458;49.002;8.472;2023-05-29T09:32:10;28.30;44.40
14735;DHT22;7458;49.002;8.472;2023-05-29T09:34:37;28.40;44.70
14735;DHT22;7458;49.002;8.472;2023-05-29T09:37:06;28.30;44.40
14735;DHT22;7458;49.002;8.472;2023-05-29T09:39:54;28.50;45.00
14735;DHT22;7458;49.002;8.472;2023-05-29T09:42:20;28.50;44.80
14735;DHT22;7458;49.002;8.472;2023-05-29T09:44:49;28.60;43.50
14735;DHT22;7458;49.002;8.472;2023-05-29T09:47:18;29.00;43.10
14735;DHT22;7458;49.002;8.472;2023-05-29T09:49:45;29.10;43.10
14735;DHT22;7458;49.002;8.472;2023-05-29T09:52:22;28.80;43.90
14735;DHT22;7458;49.002;8.472;2023-05-29T09:54:48;28.90;43.60
14735;DHT22;7458;49.002;8.472;2023-05-29T09:57:17;28.80;43.20
14735;DHT22;7458;49.002;8.472;2023-05-29T09:59:46;28.70;43.60
14735;DHT22;7458;49.002;8.472;2023-05-29T10:02:17;28.80;43.30
14735;DHT22;7458;49.002;8.472;2023-05-29T10:04:44;28.80;43.40
14735;DHT22;7458;49.002;8.472;2023-05-29T10:07:27;29.10;42.90
14735;DHT22;7458;49.002;8.472;2023-05-29T10:10:02;29.10;41.80
14735;DHT22;7458;49.002;8.472;2023-05-29T10:12:32;29.10;42.50
14735;DHT22;7458;49.002;8.472;2023-05-29T10:15:02;29.00;44.80
14735;DHT22;7458;49.002;8.472;2023-05-29T10:17:34;29.20;43.50
14735;DHT22;7458;49.002;8.472;2023-05-29T10:20:06;29.10;42.30
14735;DHT22;7458;49.002;8.472;2023-05-29T10:22:40;29.30;43.20
14735;DHT22;7458;49.002;8.472;2023-05-29T10:25:13;29.50;47.70
14735;DHT22;7458;49.002;8.472;2023-05-29T10:27:41;29.40;42.80
14735;DHT22;7458;49.002;8.472;2023-05-29T10:30:38;29.50;43.50
14735;DHT22;7458;49.002;8.472;2023-05-29T10:36:13;29.40;41.90
14735;DHT22;7458;49.002;8.472;2023-05-29T10:38:44;29.30;42.50
14735;DHT22;7458;49.002;8.472;2023-05-29T10:43:55;29.50;42.30
14735;DHT22;7458;49.002;8.472;2023-05-29T10:49:18;29.50;41.70
14735;DHT22;7458;49.002;8.472;2023-05-29T10:51:45;29.80;41.10
14735;DHT22;7458;49.002;8.472;2023-05-29T10:54:11;30.10;41.80
14735;DHT22;7458;49.002;8.472;2023-05-29T10:56:39;29.80;40.30
14735;DHT22;7458;49.002;8.472;2023-05-29T10:59:08;29.90;40.60
14735;DHT22;7458;49.002;8.472;2023-05-29T11:01:34;30.10;41.20
14735;DHT22;7458;49.002;8.472;2023-05-29T11:06:48;29.90;40.10
14735;DHT22;7458;49.002;8.472;2023-05-29T11:09:26;30.10;39.90
14735;DHT22;7458;49.002;8.472;2023-05-29T11:12:12;29.80;39.90
14735;DHT22;7458;49.002;8.472;2023-05-29T11:17:44;29.80;39.90
14735;DHT22;7458;49.002;8.472;2023-05-29T11:20:36;30.10;39.60
14735;DHT22;7458;49.002;8.472;2023-05-29T11:23:07;29.90;38.60
14735;DHT22;7458;49.002;8.472;2023-05-29T11:25:37;29.90;38.70
14735;DHT22;7458;49.002;8.472;2023-05-29T11:28:04;29.80;38.60
14735;DHT22;7458;49.002;8.472;2023-05-29T11:30:44;29.90;38.90
14735;DHT22;7458;49.002;8.472;2023-05-29T11:33:40;30.10;39.50
14735;DHT22;7458;49.002;8.472;2023-05-29T11:36:14;30.10;38.70
14735;DHT22;7458;49.002;8.472;2023-05-29T11:38:41;29.80;38.30
14735;DHT22;7458;49.002;8.472;2023-05-29T11:41:07;29.80;37.80
14735;DHT22;7458;49.002;8.472;2023-05-29T11:43:34;29.80;38.20
14735;DHT22;7458;49.002;8.472;2023-05-29T11:46:01;29.70;37.40
14735;DHT22;7458;49.002;8.472;2023-05-29T11:48:27;29.30;37.80
14735;DHT22;7458;49.002;8.472;2023-05-29T11:50:53;29.50;37.30
14735;DHT22;7458;49.002;8.472;2023-05-29T11:53:19;29.60;37.10
14735;DHT22;7458;49.002;8.472;2023-05-29T11:55:45;29.60;38.10
14735;DHT22;7458;49.002;8.472;2023-05-29T11:58:11;29.30;38.20
14735;DHT22;7458;49.002;8.472;2023-05-29T12:00:39;29.40;37.40
14735;DHT22;7458;49.002;8.472;2023-05-29T12:03:06;29.20;37.20
14735;DHT22;7458;49.002;8.472;2023-05-29T12:05:48;29.00;37.70
14735;DHT22;7458;49.002;8.472;2023-05-29T12:08:24;29.10;39.10
14735;DHT22;7458;49.002;8.472;2023-05-29T12:10:52;29.00;38.30
14735;DHT22;7458;49.002;8.472;2023-05-29T12:13:19;28.90;39.50
14735;DHT22;7458;49.002;8.472;2023-05-29T12:15:47;29.00;39.00
14735;DHT22;7458;49.002;8.472;2023-05-29T12:18:14;29.30;44.60
14735;DHT22;7458;49.002;8.472;2023-05-29T12:20:41;29.20;37.10
14735;DHT22;7458;49.002;8.472;2023-05-29T12:23:07;28.80;37.40
14735;DHT22;7458;49.002;8.472;2023-05-29T12:25:34;28.70;46.40
14735;DHT22;7458;49.002;8.472;2023-05-29T12:28:04;29.00;37.60
14735;DHT22;7458;49.002;8.472;2023-05-29T12:30:30;28.60;45.30
14735;DHT22;7458;49.002;8.472;2023-05-29T12:32:56;28.70;38.50
14735;DHT22;7458;49.002;8.472;2023-05-29T12:35:26;28.80;38.90
14735;DHT22;7458;49.002;8.472;2023-05-29T12:38:01;28.90;38.00
14735;DHT22;7458;49.002;8.472;2023-05-29T12:40:33;28.80;37.40
14735;DHT22;7458;49.002;8.472;2023-05-29T12:43:02;28.80;37.60
14735;DHT22;7458;49.002;8.472;2023-05-29T12:45:30;28.70;38.30
14735;DHT22;7458;49.002;8.472;2023-05-29T12:47:59;28.70;37.90
14735;DHT22;7458;49.002;8.472;2023-05-29T12:50:32;28.70;44.50
14735;DHT22;7458;49.002;8.472;2023-05-29T12:55:33;28.70;36.50
14735;DHT22;7458;49.002;8.472;2023-05-29T12:58:03;28.70;36.80
14735;DHT22;7458;49.002;8.472;2023-05-29T13:00:29;28.70;36.90
14735;DHT22;7458;49.002;8.472;2023-05-29T13:02:56;28.90;42.80
14735;DHT22;7458;49.002;8.472;2023-05-29T13:05:22;28.60;36.10
14735;DHT22;7458;49.002;8.472;2023-05-29T13:07:49;28.50;37.00
14735;DHT22;7458;49.002;8.472;2023-05-29T13:10:16;28.40;38.00
14735;DHT22;7458;49.002;8.472;2023-05-29T13:12:46;28.30;37.70
14735;DHT22;7458;49.002;8.472;2023-05-29T13:15:14;28.40;44.30
14735;DHT22;7458;49.002;8.472;2023-05-29T13:17:40;28.30;38.30
14735;DHT22;7458;49.002;8.472;2023-05-29T13:20:08;28.50;37.80
14735;DHT22;7458;49.002;8.472;2023-05-29T13:22:36;28.50;37.30
14735;DHT22;7458;49.002;8.472;2023-05-29T13:25:07;28.20;44.00
14735;DHT22;7458;49.002;8.472;2023-05-29T13:27:39;28.30;37.90
14735;DHT22;7458;49.002;8.472;2023-05-29T13:30:08;28.20;37.60
14735;DHT22;7458;49.002;8.472;2023-05-29T13:32:35;28.40;37.80
14735;DHT22;7458;49.002;8.472;2023-05-29T13:35:01;28.30;42.60
14735;DHT22;7458;49.002;8.472;2023-05-29T13:37:28;28.30;36.40
14735;DHT22;7458;49.002;8.472;2023-05-29T13:39:54;28.20;36.70
14735;DHT22;7458;49.002;8.472;2023-05-29T13:42:20;28.10;36.90
14735;DHT22;7458;49.002;8.472;2023-05-29T13:44:48;28.00;37.70
14735;DHT22;7458;49.002;8.472;2023-05-29T13:47:14;27.80;38.40
14735;DHT22;7458;49.002;8.472;2023-05-29T13:49:40;27.90;38.10
14735;DHT22;7458;49.002;8.472;2023-05-29T13:52:06;27.90;38.10
14735;DHT22;7458;49.002;8.472;2023-05-29T13:54:32;28.00;38.70
14735;DHT22;7458;49.002;8.472;2023-05-29T13:57:05;27.80;38.60
14735;DHT22;7458;49.002;8.472;2023-05-29T13:59:33;27.90;38.60
14735;DHT22;7458;49.002;8.472;2023-05-29T14:02:00;27.80;38.10
14735;DHT22;7458;49.002;8.472;2023-05-29T14:04:29;27.80;37.40
14735;DHT22;7458;49.002;8.472;2023-05-29T14:06:55;27.80;37.10
14735;DHT22;7458;49.002;8.472;2023-05-29T14:09:22;27.90;37.70
14735;DHT22;7458;49.002;8.472;2023-05-29T14:11:59;27.90;38.10
14735;DHT22;7458;49.002;8.472;2023-05-29T14:14:27;27.90;38.60
14735;DHT22;7458;49.002;8.472;2023-05-29T14:16:53;28.10;37.80
14735;DHT22;7458;49.002;8.472;2023-05-29T14:19:20;28.10;38.40
14735;DHT22;7458;49.002;8.472;2023-05-29T14:21:50;28.10;38.40
14735;DHT22;7458;49.002;8.472;2023-05-29T14:24:17;28.00;37.70
14735;DHT22;7458;49.002;8.472;2023-05-29T14:26:44;27.80;36.80
14735;DHT22;7458;49.002;8.472;2023-05-29T14:29:13;27.70;36.30
14735;DHT22;7458;49.002;8.472;2023-05-29T14:31:40;27.70;37.20
14735;DHT22;7458;49.002;8.472;2023-05-29T14:34:06;27.70;37.50
14735;DHT22;7458;49.002;8.472;2023-05-29T14:36:32;27.70;37.80
14735;DHT22;7458;49.002;8.472;2023-05-29T14:38:58;27.60;38.10
14735;DHT22;7458;49.002;8.472;2023-05-29T14:41:24;27.80;38.40
14735;DHT22;7458;49.002;8.472;2023-05-29T14:43:51;27.80;38.10
14735;DHT22;7458;49.002;8.472;2023-05-29T14:46:17;27.90;38.30
14735;DHT22;7458;49.002;8.472;2023-05-29T14:48:43;28.00;39.30
14735;DHT22;7458;49.002;8.472;2023-05-29T14:51:09;28.00;39.50
14735;DHT22;7458;49.002;8.472;2023-05-29T14:53:36;28.00;38.20
14735;DHT22;7458;49.002;8.472;2023-05-29T14:56:02;27.90;38.60
14735;DHT22;7458;49.002;8.472;2023-05-29T14:58:28;27.80;37.70
14735;DHT22;7458;49.002;8.472;2023-05-29T15:00:53;27.80;38.20
14735;DHT22;7458;49.002;8.472;2023-05-29T15:03:19;27.70;37.30
14735;DHT22;7458;49.002;8.472;2023-05-29T15:05:46;27.80;37.00
14735;DHT22;7458;49.002;8.472;2023-05-29T15:08:11;27.70;38.00
14735;DHT22;7458;49.002;8.472;2023-05-29T15:10:38;27.80;38.00
14735;DHT22;7458;49.002;8.472;2023-05-29T15:13:04;27.90;38.20
14735;DHT22;7458;49.002;8.472;2023-05-29T15:15:32;29.80;39.70
14735;DHT22;7458;49.002;8.472;2023-05-29T15:17:57;27.90;37.80
14735;DHT22;7458;49.002;8.472;2023-05-29T15:20:24;28.00;38.20
14735;DHT22;7458;49.002;8.472;2023-05-29T15:22:52;27.90;38.60
14735;DHT22;7458;49.002;8.472;2023-05-29T15:25:19;27.90;38.30
14735;DHT22;7458;49.002;8.472;2023-05-29T15:30:21;27.70;37.40
14735;DHT22;7458;49.002;8.472;2023-05-29T15:32:47;27.80;46.20
14735;DHT22;7458;49.002;8.472;2023-05-29T15:35:14;27.70;46.20
14735;DHT22;7458;49.002;8.472;2023-05-29T15:37:44;27.60;38.70
14735;DHT22;7458;49.002;8.472;2023-05-29T15:40:10;27.60;39.00
14735;DHT22;7458;49.002;8.472;2023-05-29T15:42:36;27.70;38.80
14735;DHT22;7458;49.002;8.472;2023-05-29T15:45:03;27.90;47.10
14735;DHT22;7458;49.002;8.472;2023-05-29T15:47:30;27.70;39.60
14735;DHT22;7458;49.002;8.472;2023-05-29T15:49:57;27.70;39.30
14735;DHT22;7458;49.002;8.472;2023-05-29T15:52:25;27.70;45.90
14735;DHT22;7458;49.002;8.472;2023-05-29T15:54:51;27.70;37.40
14735;DHT22;7458;49.002;8.472;2023-05-29T15:57:16;27.50;46.00
14735;DHT22;7458;49.002;8.472;2023-05-29T15:59:45;27.30;45.90
14735;DHT22;7458;49.002;8.472;2023-05-29T16:02:11;27.40;38.20
14735;DHT22;7458;49.002;8.472;2023-05-29T16:04:37;27.40;38.80
14735;DHT22;7458;49.002;8.472;2023-05-29T16:07:02;27.40;38.50
14735;DHT22;7458;49.002;8.472;2023-05-29T16:09:28;27.50;38.40
14735;DHT22;7458;49.002;8.472;2023-05-29T16:11:55;27.50;38.80
14735;DHT22;7458;49.002;8.472;2023-05-29T16:14:21;27.50;38.70
14735;DHT22;7458;49.002;8.472;2023-05-29T16:16:48;27.60;38.30
14735;DHT22;7458;49.002;8.472;2023-05-29T16:19:13;27.60;38.00
14735;DHT22;7458;49.002;8.472;2023-05-29T16:21:40;27.60;37.90
14735;DHT22;7458;49.002;8.472;2023-05-29T16:24:06;27.40;37.70
14735;DHT22;7458;49.002;8.472;2023-05-29T16:26:32;27.40;37.30
14735;DHT22;7458;49.002;8.472;2023-05-29T16:29:00;27.40;37.10
14735;DHT22;7458;49.002;8.472;2023-05-29T16:31:27;27.30;37.70
14735;DHT22;7458;49.002;8.472;2023-05-29T16:33:54;27.30;37.80
14735;DHT22;7458;49.002;8.472;2023-05-29T16:36:20;27.10;38.20
14735;DHT22;7458;49.002;8.472;2023-05-29T16:38:47;27.20;38.50
14735;DHT22;7458;49.002;8.472;2023-05-29T16:41:13;27.20;38.30
14735;DHT22;7458;49.002;8.472;2023-05-29T16:43:38;27.30;38.10
14735;DHT22;7458;49.002;8.472;2023-05-29T16:46:04;27.30;38.20
14735;DHT22;7458;49.002;8.472;2023-05-29T16:48:34;27.30;37.90
14735;DHT22;7458;49.002;8.472;2023-05-29T16:51:07;27.20;37.90
14735;DHT22;7458;49.002;8.472;2023-05-29T16:53:34;27.30;38.00
14735;DHT22;7458;49.002;8.472;2023-05-29T16:56:01;27.40;37.90
14735;DHT22;7458;49.002;8.472;2023-05-29T16:58:27;27.40;38.20
14735;DHT22;7458;49.002;8.472;2023-05-29T17:00:53;27.40;37.60
14735;DHT22;7458;49.002;8.472;2023-05-29T17:03:18;27.30;37.30
14735;DHT22;7458;49.002;8.472;2023-05-29T17:05:44;27.20;37.40
14735;DHT22;7458;49.002;8.472;2023-05-29T17:08:13;27.20;38.10
14735;DHT22;7458;49.002;8.472;2023-05-29T17:10:39;27.10;38.40
14735;DHT22;7458;49.002;8.472;2023-05-29T17:13:06;27.10;38.60
14735;DHT22;7458;49.002;8.472;2023-05-29T17:15:32;27.10;38.80
14735;DHT22;7458;49.002;8.472;2023-05-29T17:17:59;27.10;38.90
14735;DHT22;7458;49.002;8.472;2023-05-29T17:20:25;26.90;39.30
14735;DHT22;7458;49.002;8.472;2023-05-29T17:22:51;26.90;39.30
14735;DHT22;7458;49.002;8.472;2023-05-29T17:25:18;26.90;40.00
14735;DHT22;7458;49.002;8.472;2023-05-29T17:27:45;27.00;40.10
14735;DHT22;7458;49.002;8.472;2023-05-29T17:30:11;26.90;40.20
14735;DHT22;7458;49.002;8.472;2023-05-29T17:32:37;26.90;40.10
14735;DHT22;7458;49.002;8.472;2023-05-29T17:35:03;26.80;40.20
14735;DHT22;7458;49.002;8.472;2023-05-29T17:37:30;26.90;40.40
14735;DHT22;7458;49.002;8.472;2023-05-29T17:39:55;26.90;41.10
14735;DHT22;7458;49.002;8.472;2023-05-29T17:42:21;26.90;41.00
14735;DHT22;7458;49.002;8.472;2023-05-29T17:44:47;26.90;41.20
14735;DHT22;7458;49.002;8.472;2023-05-29T17:47:13;26.80;41.80
14735;DHT22;7458;49.002;8.472;2023-05-29T17:49:38;26.70;42.10
14735;DHT22;7458;49.002;8.472;2023-05-29T17:52:05;26.50;41.90
14735;DHT22;7458;49.002;8.472;2023-05-29T17:54:32;26.60;42.30